sensor_id;sensor_type;location;lat;lon;timestamp;pressure;altitude;pressure_sealevel;temperature;humidity
24440;BME280;12618;54.386;18.394;2022-08-19T12:37:01;99203.53;;;35.44;37.22
24440;BME280;12618;54.386;18.394;2022-08-19T12:39:41;99203.96;;;35.69;36.15
24440;BME280;12618;54.386;18.394;2022-08-19T12:42:13;99202.94;;;35.73;35.40
24440;BME280;12618;54.386;18.394;2022-08-19T12:44:44;99202.59;;;35.38;35.47
24440;BME280;12618;54.386;18.394;2022-08-19T12:47:15;99198.59;;;35.29;37.08
24440;BME280;12618;54.386;18.394;2022-08-19T12:49:48;99193.77;;;35.36;36.33
24440;BME280;12618;54.386;18.394;2022-08-19T12:52:19;99187.73;;;35.34;36.79
24440;BME280;12618;54.386;18.394;2022-08-19T12:54:53;99188.09;;;35.12;35.43
24440;BME280;12618;54.386;18.394;2022-08-19T12:57:27;99186.50;;;34.50;36.29
24440;BME280;12618;54.386;18.394;2022-08-19T13:00:03;99180.80;;;34.17;36.67
24440;BME280;12618;54.386;18.394;2022-08-19T13:02:31;99178.27;;;33.80;36.46
24440;BME280;12618;54.386;18.394;2022-08-19T13:05:03;99175.35;;;33.52;37.70
24440;BME280;12618;54.386;18.394;2022-08-19T13:07:35;99162.44;;;33.50;37.76
24440;BME280;12618;54.386;18.394;2022-08-19T13:10:08;99156.66;;;33.49;37.92
24440;BME280;12618;54.386;18.394;2022-08-19T13:12:39;99162.34;;;33.56;38.36
24440;BME280;12618;54.386;18.394;2022-08-19T13:15:11;99162.34;;;33.77;38.77
24440;BME280;12618;54.386;18.394;2022-08-19T13:17:45;99159.25;;;33.85;38.48
24440;BME280;12618;54.386;18.394;2022-08-19T13:20:19;99158.88;;;33.93;38.86
24440;BME280;12618;54.386;18.394;2022-08-19T13:22:51;99160.48;;;33.92;38.15
24440;BME280;12618;54.386;18.394;2022-08-19T13:25:22;99152.34;;;33.94;38.83
24440;BME280;12618;54.386;18.394;2022-08-19T13:27:53;99143.72;;;34.12;39.10
24440;BME280;12618;54.386;18.394;2022-08-19T13:30:25;99149.37;;;34.08;38.98
24440;BME280;12618;54.386;18.394;2022-08-19T13:33:15;99143.52;;;34.16;38.68
24440;BME280;12618;54.386;18.394;2022-08-19T13:35:51;99143.23;;;34.26;38.39
24440;BME280;12618;54.386;18.394;2022-08-19T13:38:25;99137.44;;;34.14;37.57
24440;BME280;12618;54.386;18.394;2022-08-19T13:40:56;99139.78;;;34.08;37.77
24440;BME280;12618;54.386;18.394;2022-08-19T13:43:29;99140.98;;;34.12;38.49
24440;BME280;12618;54.386;18.394;2022-08-19T13:45:59;99136.98;;;34.05;38.58
24440;BME280;12618;54.386;18.394;2022-08-19T13:48:31;99140.55;;;33.82;38.62
24440;BME280;12618;54.386;18.394;2022-08-19T13:51:04;99135.02;;;33.59;38.57
24440;BME280;12618;54.386;18.394;2022-08-19T13:53:36;99139.58;;;33.33;39.01
24440;BME280;12618;54.386;18.394;2022-08-19T13:56:15;99130.16;;;33.19;39.63
24440;BME280;12618;54.386;18.394;2022-08-19T13:58:42;99127.50;;;33.01;39.35
24440;BME280;12618;54.386;18.394;2022-08-19T14:01:19;99128.52;;;32.88;39.63
24440;BME280;12618;54.386;18.394;2022-08-19T14:03:51;99125.63;;;32.83;40.00
24440;BME280;12618;54.386;18.394;2022-08-19T14:06:22;99121.88;;;32.96;40.46
24440;BME280;12618;54.386;18.394;2022-08-19T14:08:53;99125.45;;;33.26;40.70
24440;BME280;12618;54.386;18.394;2022-08-19T14:11:24;99119.80;;;33.51;39.89
24440;BME280;12618;54.386;18.394;2022-08-19T14:13:55;99118.38;;;33.60;40.18
24440;BME280;12618;54.386;18.394;2022-08-19T14:16:25;99118.44;;;33.63;39.36
24440;BME280;12618;54.386;18.394;2022-08-19T14:18:57;99128.78;;;33.61;39.29
24440;BME280;12618;54.386;18.394;2022-08-19T14:21:28;99128.36;;;33.43;38.42
24440;BME280;12618;54.386;18.394;2022-08-19T14:23:59;99124.70;;;33.19;39.08
24440;BME280;12618;54.386;18.394;2022-08-19T14:26:32;99123.70;;;32.93;39.36
24440;BME280;12618;54.386;18.394;2022-08-19T14:29:03;99120.70;;;32.83;40.27
24440;BME280;12618;54.386;18.394;2022-08-19T14:31:34;99118.45;;;32.80;40.32
24440;BME280;12618;54.386;18.394;2022-08-19T14:34:05;99122.24;;;32.51;40.21
24440;BME280;12618;54.386;18.394;2022-08-19T14:36:37;99120.07;;;32.24;41.46
24440;BME280;12618;54.386;18.394;2022-08-19T14:39:08;99124.80;;;32.10;41.87
24440;BME280;12618;54.386;18.394;2022-08-19T14:41:40;99128.50;;;32.06;42.44
24440;BME280;12618;54.386;18.394;2022-08-19T14:44:12;99126.92;;;32.17;42.52
24440;BME280;12618;54.386;18.394;2022-08-19T14:46:43;99121.20;;;32.43;41.95
24440;BME280;12618;54.386;18.394;2022-08-19T14:49:15;99129.25;;;32.47;41.60
24440;BME280;12618;54.386;18.394;2022-08-19T14:51:46;99122.69;;;32.48;41.67
24440;BME280;12618;54.386;18.394;2022-08-19T14:54:18;99119.19;;;32.60;41.19
24440;BME280;12618;54.386;18.394;2022-08-19T14:56:48;99120.39;;;32.82;41.92
24440;BME280;12618;54.386;18.394;2022-08-19T14:59:20;99122.03;;;32.92;41.38
24440;BME280;12618;54.386;18.394;2022-08-19T15:01:51;99111.86;;;32.99;41.15
24440;BME280;12618;54.386;18.394;2022-08-19T15:04:22;99112.02;;;32.95;41.14
24440;BME280;12618;54.386;18.394;2022-08-19T15:06:53;99104.27;;;32.92;41.17
24440;BME280;12618;54.386;18.394;2022-08-19T15:09:23;99104.98;;;32.87;41.45
24440;BME280;12618;54.386;18.394;2022-08-19T15:11:55;99096.41;;;32.84;41.01
24440;BME280;12618;54.386;18.394;2022-08-19T15:14:29;99094.88;;;32.88;41.20
24440;BME280;12618;54.386;18.394;2022-08-19T15:17:03;99096.86;;;32.81;40.96
24440;BME280;12618;54.386;18.394;2022-08-19T15:19:35;99093.19;;;32.57;41.96
24440;BME280;12618;54.386;18.394;2022-08-19T15:22:06;99092.80;;;32.53;41.34
24440;BME280;12618;54.386;18.394;2022-08-19T15:24:37;99093.03;;;32.52;41.67
24440;BME280;12618;54.386;18.394;2022-08-19T15:27:08;99090.07;;;32.53;41.88
24440;BME280;12618;54.386;18.394;2022-08-19T15:29:40;99088.50;;;32.46;41.40
24440;BME280;12618;54.386;18.394;2022-08-19T15:32:11;99087.66;;;32.27;41.74
24440;BME280;12618;54.386;18.394;2022-08-19T15:34:42;99090.23;;;32.13;42.20
24440;BME280;12618;54.386;18.394;2022-08-19T15:37:13;99095.30;;;32.09;42.38
24440;BME280;12618;54.386;18.394;2022-08-19T15:39:47;99094.16;;;31.99;41.94
24440;BME280;12618;54.386;18.394;2022-08-19T15:42:18;99101.52;;;31.98;42.29
24440;BME280;12618;54.386;18.394;2022-08-19T15:44:50;99094.91;;;31.97;42.56
24440;BME280;12618;54.386;18.394;2022-08-19T15:47:21;99088.53;;;31.84;43.05
24440;BME280;12618;54.386;18.394;2022-08-19T15:49:52;99086.85;;;31.83;43.08
24440;BME280;12618;54.386;18.394;2022-08-19T15:52:23;99087.55;;;31.79;43.78
24440;BME280;12618;54.386;18.394;2022-08-19T15:54:53;99075.62;;;31.82;44.04
24440;BME280;12618;54.386;18.394;2022-08-19T15:57:24;99071.40;;;31.77;44.08
24440;BME280;12618;54.386;18.394;2022-08-19T15:59:57;99074.88;;;31.75;44.28
24440;BME280;12618;54.386;18.394;2022-08-19T16:02:47;99073.20;;;31.74;44.33
24440;BME280;12618;54.386;18.394;2022-08-19T16:05:38;99064.09;;;31.71;44.33
24440;BME280;12618;54.386;18.394;2022-08-19T16:08:32;99067.08;;;31.70;44.79
24440;BME280;12618;54.386;18.394;2022-08-19T16:11:04;99065.11;;;31.61;44.93
24440;BME280;12618;54.386;18.394;2022-08-19T16:13:37;99064.58;;;31.62;45.24
24440;BME280;12618;54.386;18.394;2022-08-19T16:16:09;99066.95;;;31.58;47.04
24440;BME280;12618;54.386;18.394;2022-08-19T16:18:40;99065.94;;;31.53;45.66
24440;BME280;12618;54.386;18.394;2022-08-19T16:21:14;99066.88;;;31.40;45.38
24440;BME280;12618;54.386;18.394;2022-08-19T16:23:48;99063.61;;;31.31;45.67
24440;BME280;12618;54.386;18.394;2022-08-19T16:26:20;99062.00;;;31.24;45.26
24440;BME280;12618;54.386;18.394;2022-08-19T16:28:57;99064.33;;;31.20;44.96
24440;BME280;12618;54.386;18.394;2022-08-19T16:31:26;99060.77;;;31.20;45.02
24440;BME280;12618;54.386;18.394;2022-08-19T16:33:57;99056.65;;;31.10;45.19
24440;BME280;12618;54.386;18.394;2022-08-19T16:36:28;99056.13;;;31.04;45.00
24440;BME280;12618;54.386;18.394;2022-08-19T16:39:01;99057.33;;;30.99;45.04
24440;BME280;12618;54.386;18.394;2022-08-19T16:41:32;99058.91;;;30.98;45.55
24440;BME280;12618;54.386;18.394;2022-08-19T16:44:05;99066.87;;;30.99;45.54
24440;BME280;12618;54.386;18.394;2022-08-19T16:46:36;99069.71;;;30.95;45.17
24440;BME280;12618;54.386;18.394;2022-08-19T16:49:10;99064.84;;;30.88;45.45
24440;BME280;12618;54.386;18.394;2022-08-19T16:51:41;99068.00;;;30.85;45.63
24440;BME280;12618;54.386;18.394;2022-08-19T16:54:13;99070.25;;;30.79;45.59
24440;BME280;12618;54.386;18.394;2022-08-19T16:56:45;99072.41;;;30.70;46.10
24440;BME280;12618;54.386;18.394;2022-08-19T16:59:18;99072.31;;;30.68;46.85
24440;BME280;12618;54.386;18.394;2022-08-19T17:01:49;99074.84;;;30.63;46.68
24440;BME280;12618;54.386;18.394;2022-08-19T17:04:22;99080.44;;;30.59;46.58
24440;BME280;12618;54.386;18.394;2022-08-19T17:06:52;99083.38;;;30.57;46.60
24440;BME280;12618;54.386;18.394;2022-08-19T17:09:24;99090.81;;;30.53;46.98
24440;BME280;12618;54.386;18.394;2022-08-19T17:11:55;99084.13;;;30.49;47.41
24440;BME280;12618;54.386;18.394;2022-08-19T17:14:26;99090.52;;;30.38;48.45
24440;BME280;12618;54.386;18.394;2022-08-19T17:16:57;99087.20;;;30.36;47.34
24440;BME280;12618;54.386;18.394;2022-08-19T17:19:28;99083.12;;;30.36;47.96
24440;BME280;12618;54.386;18.394;2022-08-19T17:22:00;99082.61;;;30.30;47.96
24440;BME280;12618;54.386;18.394;2022-08-19T17:24:35;99089.97;;;30.23;47.89
24440;BME280;12618;54.386;18.394;2022-08-19T17:27:07;99087.26;;;30.17;49.08
24440;BME280;12618;54.386;18.394;2022-08-19T17:29:38;99084.36;;;30.12;48.30
24440;BME280;12618;54.386;18.394;2022-08-19T17:32:09;99069.11;;;29.97;49.62
24440;BME280;12618;54.386;18.394;2022-08-19T17:34:41;99080.10;;;30.00;49.06
24440;BME280;12618;54.386;18.394;2022-08-19T17:37:13;99081.22;;;29.95;49.78
24440;BME280;12618;54.386;18.394;2022-08-19T17:39:45;99082.40;;;29.90;49.62
24440;BME280;12618;54.386;18.394;2022-08-19T17:42:16;99081.88;;;29.84;49.83
24440;BME280;12618;54.386;18.394;2022-08-19T17:44:47;99083.23;;;29.84;49.53
24440;BME280;12618;54.386;18.394;2022-08-19T17:47:20;99068.50;;;29.76;49.77
24440;BME280;12618;54.386;18.394;2022-08-19T17:49:59;99075.83;;;29.82;49.95
24440;BME280;12618;54.386;18.394;2022-08-19T17:52:26;99069.55;;;29.75;50.57
24440;BME280;12618;54.386;18.394;2022-08-19T17:54:57;99067.38;;;29.67;50.55
24440;BME280;12618;54.386;18.394;2022-08-19T17:57:30;99067.16;;;29.62;50.60
24440;BME280;12618;54.386;18.394;2022-08-19T18:00:03;99068.22;;;29.55;51.64
24440;BME280;12618;54.386;18.394;2022-08-19T18:02:46;99075.64;;;29.50;51.16
24440;BME280;12618;54.386;18.394;2022-08-19T18:05:19;99078.59;;;29.49;51.25
24440;BME280;12618;54.386;18.394;2022-08-19T18:07:54;99073.33;;;29.34;52.28
24440;BME280;12618;54.386;18.394;2022-08-19T18:10:29;99071.66;;;29.13;52.92
24440;BME280;12618;54.386;18.394;2022-08-19T18:13:01;99078.34;;;29.04;52.62
24440;BME280;12618;54.386;18.394;2022-08-19T18:15:32;99075.40;;;28.92;53.23
24440;BME280;12618;54.386;18.394;2022-08-19T18:18:04;99078.92;;;28.86;54.67
24440;BME280;12618;54.386;18.394;2022-08-19T18:20:37;99070.31;;;28.76;54.60
24440;BME280;12618;54.386;18.394;2022-08-19T18:23:09;99072.91;;;28.67;54.89
24440;BME280;12618;54.386;18.394;2022-08-19T18:25:40;99076.73;;;28.62;54.38
24440;BME280;12618;54.386;18.394;2022-08-19T18:28:11;99067.34;;;28.58;55.13
24440;BME280;12618;54.386;18.394;2022-08-19T18:30:42;99069.19;;;28.51;55.86
24440;BME280;12618;54.386;18.394;2022-08-19T18:33:12;99066.91;;;28.48;56.24
24440;BME280;12618;54.386;18.394;2022-08-19T18:35:49;99066.98;;;28.44;56.00
24440;BME280;12618;54.386;18.394;2022-08-19T18:38:22;99065.82;;;28.42;55.88
24440;BME280;12618;54.386;18.394;2022-08-19T18:41:11;99074.16;;;28.41;56.47
24440;BME280;12618;54.386;18.394;2022-08-19T18:44:00;99077.91;;;28.40;57.13
24440;BME280;12618;54.386;18.394;2022-08-19T18:46:49;99079.52;;;28.45;56.55
24440;BME280;12618;54.386;18.394;2022-08-19T18:49:38;99078.87;;;28.43;56.60
24440;BME280;12618;54.386;18.394;2022-08-19T18:52:12;99079.59;;;28.41;56.83
24440;BME280;12618;54.386;18.394;2022-08-19T18:54:43;99081.71;;;28.45;56.80
24440;BME280;12618;54.386;18.394;2022-08-19T18:57:19;99085.19;;;28.50;57.38
24440;BME280;12618;54.386;18.394;2022-08-19T18:59:51;99087.58;;;28.49;57.34
24440;BME280;12618;54.386;18.394;2022-08-19T19:02:26;99095.30;;;28.52;56.85
24440;BME280;12618;54.386;18.394;2022-08-19T19:04:57;99097.29;;;28.54;57.96
24440;BME280;12618;54.386;18.394;2022-08-19T19:07:33;99092.06;;;28.52;57.40
24440;BME280;12618;54.386;18.394;2022-08-19T19:10:05;99094.25;;;28.53;57.31
24440;BME280;12618;54.386;18.394;2022-08-19T19:12:40;99094.58;;;28.54;57.76
24440;BME280;12618;54.386;18.394;2022-08-19T19:15:11;99102.92;;;28.52;58.51
24440;BME280;12618;54.386;18.394;2022-08-19T19:17:42;99105.12;;;28.53;57.80
24440;BME280;12618;54.386;18.394;2022-08-19T19:20:15;99108.87;;;28.52;57.88
24440;BME280;12618;54.386;18.394;2022-08-19T19:22:47;99110.97;;;28.50;57.52
24440;BME280;12618;54.386;18.394;2022-08-19T19:25:24;99105.62;;;28.46;58.21
24440;BME280;12618;54.386;18.394;2022-08-19T19:27:56;99112.28;;;28.43;58.31
24440;BME280;12618;54.386;18.394;2022-08-19T19:30:27;99113.84;;;28.42;59.17
24440;BME280;12618;54.386;18.394;2022-08-19T19:33:00;99118.02;;;28.38;58.51
24440;BME280;12618;54.386;18.394;2022-08-19T19:35:34;99122.28;;;28.36;59.04
24440;BME280;12618;54.386;18.394;2022-08-19T19:38:05;99121.66;;;28.41;58.26
24440;BME280;12618;54.386;18.394;2022-08-19T19:40:36;99128.65;;;28.39;58.75
24440;BME280;12618;54.386;18.394;2022-08-19T19:43:07;99119.06;;;28.37;59.14
24440;BME280;12618;54.386;18.394;2022-08-19T19:45:39;99121.12;;;28.35;58.80
24440;BME280;12618;54.386;18.394;2022-08-19T19:48:10;99127.59;;;28.34;59.33
24440;BME280;12618;54.386;18.394;2022-08-19T19:50:44;99131.34;;;28.33;59.40
24440;BME280;12618;54.386;18.394;2022-08-19T19:53:14;99129.02;;;28.30;59.37
24440;BME280;12618;54.386;18.394;2022-08-19T19:55:45;99123.00;;;28.34;59.18
24440;BME280;12618;54.386;18.394;2022-08-19T19:58:16;99123.39;;;28.31;59.72
24440;BME280;12618;54.386;18.394;2022-08-19T20:00:48;99123.20;;;28.33;59.44
24440;BME280;12618;54.386;18.394;2022-08-19T20:03:19;99126.30;;;28.30;59.75
24440;BME280;12618;54.386;18.394;2022-08-19T20:05:51;99121.91;;;28.29;59.53
24440;BME280;12618;54.386;18.394;2022-08-19T20:08:25;99124.63;;;28.29;59.34
24440;BME280;12618;54.386;18.394;2022-08-19T20:11:30;99121.30;;;28.27;59.80
24440;BME280;12618;54.386;18.394;2022-08-19T20:14:14;99130.06;;;28.29;59.70
24440;BME280;12618;54.386;18.394;2022-08-19T20:16:38;99127.86;;;28.28;59.67
24440;BME280;12618;54.386;18.394;2022-08-19T20:19:14;99128.70;;;28.29;59.67
24440;BME280;12618;54.386;18.394;2022-08-19T20:21:47;99140.30;;;28.27;59.66
24440;BME280;12618;54.386;18.394;2022-08-19T20:24:21;99139.27;;;28.28;60.23
24440;BME280;12618;54.386;18.394;2022-08-19T20:26:52;99141.43;;;28.28;59.76
24440;BME280;12618;54.386;18.394;2022-08-19T20:29:24;99144.89;;;28.26;59.76
24440;BME280;12618;54.386;18.394;2022-08-19T20:31:55;99153.94;;;28.22;59.98
24440;BME280;12618;54.386;18.394;2022-08-19T20:34:29;99154.27;;;28.23;60.10
24440;BME280;12618;54.386;18.394;2022-08-19T20:37:00;99153.81;;;28.20;60.29
24440;BME280;12618;54.386;18.394;2022-08-19T20:39:31;99156.41;;;28.17;60.59
24440;BME280;12618;54.386;18.394;2022-08-19T20:42:01;99147.62;;;28.15;60.49
24440;BME280;12618;54.386;18.394;2022-08-19T20:44:37;99155.31;;;28.12;60.72
24440;BME280;12618;54.386;18.394;2022-08-19T20:47:06;99157.05;;;28.09;60.71
24440;BME280;12618;54.386;18.394;2022-08-19T20:49:37;99153.50;;;28.08;60.86
24440;BME280;12618;54.386;18.394;2022-08-19T20:52:13;99152.02;;;28.06;61.67
24440;BME280;12618;54.386;18.394;2022-08-19T20:54:45;99152.02;;;28.06;61.12
24440;BME280;12618;54.386;18.394;2022-08-19T20:57:16;99151.08;;;28.03;61.46
24440;BME280;12618;54.386;18.394;2022-08-19T20:59:47;99150.95;;;28.00;61.19
24440;BME280;12618;54.386;18.394;2022-08-19T21:02:19;99136.03;;;28.00;61.75
24440;BME280;12618;54.386;18.394;2022-08-19T21:04:50;99145.53;;;28.00;61.24
24440;BME280;12618;54.386;18.394;2022-08-19T21:07:21;99139.45;;;27.98;61.15
24440;BME280;12618;54.386;18.394;2022-08-19T21:09:55;99135.91;;;27.98;61.80
24440;BME280;12618;54.386;18.394;2022-08-19T21:12:25;99139.65;;;27.97;61.69
24440;BME280;12618;54.386;18.394;2022-08-19T21:14:59;99135.16;;;27.93;62.29
24440;BME280;12618;54.386;18.394;2022-08-19T21:17:30;99138.48;;;27.95;62.59
24440;BME280;12618;54.386;18.394;2022-08-19T21:20:01;99133.81;;;27.93;62.14
24440;BME280;12618;54.386;18.394;2022-08-19T21:22:32;99133.55;;;27.88;62.68
24440;BME280;12618;54.386;18.394;2022-08-19T21:25:05;99136.45;;;27.86;62.44
24440;BME280;12618;54.386;18.394;2022-08-19T21:27:37;99138.33;;;27.86;62.54
24440;BME280;12618;54.386;18.394;2022-08-19T21:30:08;99140.01;;;27.87;62.88
24440;BME280;12618;54.386;18.394;2022-08-19T21:32:39;99141.04;;;27.86;62.54
24440;BME280;12618;54.386;18.394;2022-08-19T21:35:10;99145.43;;;27.87;62.77
24440;BME280;12618;54.386;18.394;2022-08-19T21:37:41;99139.03;;;27.84;62.62
24440;BME280;12618;54.386;18.394;2022-08-19T21:40:12;99134.36;;;27.82;63.20
24440;BME280;12618;54.386;18.394;2022-08-19T21:42:43;99137.26;;;27.80;62.94
24440;BME280;12618;54.386;18.394;2022-08-19T21:45:14;99141.59;;;27.75;62.96
24440;BME280;12618;54.386;18.394;2022-08-19T21:47:47;99147.42;;;27.72;63.07
24440;BME280;12618;54.386;18.394;2022-08-19T21:50:19;99155.75;;;27.70;63.44
24440;BME280;12618;54.386;18.394;2022-08-19T21:52:50;99150.91;;;27.66;63.52
24440;BME280;12618;54.386;18.394;2022-08-19T21:55:21;99147.55;;;27.64;63.47
24440;BME280;12618;54.386;18.394;2022-08-19T21:57:52;99158.72;;;27.65;63.22
24440;BME280;12618;54.386;18.394;2022-08-19T22:00:24;99155.87;;;27.62;63.42
24440;BME280;12618;54.386;18.394;2022-08-19T22:02:56;99152.32;;;27.62;63.63
24440;BME280;12618;54.386;18.394;2022-08-19T22:05:28;99151.94;;;27.65;63.50
24440;BME280;12618;54.386;18.394;2022-08-19T22:08:01;99153.61;;;27.66;63.72
24440;BME280;12618;54.386;18.394;2022-08-19T22:10:32;99154.13;;;27.65;63.40
24440;BME280;12618;54.386;18.394;2022-08-19T22:13:04;99154.00;;;27.63;63.44
24440;BME280;12618;54.386;18.394;2022-08-19T22:15:34;99159.09;;;27.62;63.64
24440;BME280;12618;54.386;18.394;2022-08-19T22:18:05;99156.71;;;27.63;64.29
24440;BME280;12618;54.386;18.394;2022-08-19T22:20:37;99170.72;;;27.66;65.15
24440;BME280;12618;54.386;18.394;2022-08-19T22:23:12;99167.78;;;27.61;65.89
24440;BME280;12618;54.386;18.394;2022-08-19T22:25:46;99167.67;;;27.54;66.27
24440;BME280;12618;54.386;18.394;2022-08-19T22:28:19;99157.72;;;27.51;66.34
24440;BME280;12618;54.386;18.394;2022-08-19T22:30:50;99151.79;;;27.51;66.57
24440;BME280;12618;54.386;18.394;2022-08-19T22:33:20;99161.27;;;27.51;67.67
24440;BME280;12618;54.386;18.394;2022-08-19T22:35:53;99153.23;;;27.47;67.56
24440;BME280;12618;54.386;18.394;2022-08-19T22:38:25;99156.13;;;27.46;68.43
24440;BME280;12618;54.386;18.394;2022-08-19T22:41:01;99147.55;;;27.42;68.51
24440;BME280;12618;54.386;18.394;2022-08-19T22:43:30;99148.98;;;27.38;68.54
24440;BME280;12618;54.386;18.394;2022-08-19T22:46:04;99151.09;;;27.32;68.82
24440;BME280;12618;54.386;18.394;2022-08-19T22:48:36;99151.19;;;27.28;69.16
24440;BME280;12618;54.386;18.394;2022-08-19T22:51:07;99146.85;;;27.23;69.34
24440;BME280;12618;54.386;18.394;2022-08-19T22:53:57;99141.16;;;27.18;69.55
24440;BME280;12618;54.386;18.394;2022-08-19T22:56:28;99138.13;;;27.06;69.78
24440;BME280;12618;54.386;18.394;2022-08-19T22:58:59;99130.27;;;27.01;70.03
24440;BME280;12618;54.386;18.394;2022-08-19T23:01:39;99140.13;;;26.98;70.75
24440;BME280;12618;54.386;18.394;2022-08-19T23:04:12;99137.50;;;26.94;69.92
24440;BME280;12618;54.386;18.394;2022-08-19T23:06:46;99126.36;;;26.89;71.00
24440;BME280;12618;54.386;18.394;2022-08-19T23:09:17;99119.63;;;26.84;71.47
24440;BME280;12618;54.386;18.394;2022-08-19T23:11:49;99133.58;;;26.81;70.19
24440;BME280;12618;54.386;18.394;2022-08-19T23:14:20;99143.59;;;26.66;70.84
24440;BME280;12618;54.386;18.394;2022-08-19T23:16:51;99139.11;;;26.48;71.81
24440;BME280;12618;54.386;18.394;2022-08-19T23:19:22;99138.78;;;26.47;71.92
24440;BME280;12618;54.386;18.394;2022-08-19T23:21:53;99145.69;;;26.50;72.71
24440;BME280;12618;54.386;18.394;2022-08-19T23:24:26;99145.03;;;26.48;72.43
24440;BME280;12618;54.386;18.394;2022-08-19T23:26:59;99144.56;;;26.44;72.52
24440;BME280;12618;54.386;18.394;2022-08-19T23:29:48;99151.11;;;26.35;72.19
24440;BME280;12618;54.386;18.394;2022-08-19T23:32:38;99153.92;;;26.23;71.56
24440;BME280;12618;54.386;18.394;2022-08-19T23:35:10;99157.42;;;26.13;72.11
24440;BME280;12618;54.386;18.394;2022-08-19T23:37:41;99154.13;;;26.06;73.70
24440;BME280;12618;54.386;18.394;2022-08-19T23:40:11;99151.97;;;26.02;72.81
24440;BME280;12618;54.386;18.394;2022-08-19T23:42:42;99154.88;;;25.96;72.65
24440;BME280;12618;54.386;18.394;2022-08-19T23:45:18;99156.23;;;25.96;72.39
24440;BME280;12618;54.386;18.394;2022-08-19T23:47:50;99158.94;;;25.96;72.81
24440;BME280;12618;54.386;18.394;2022-08-19T23:50:23;99162.61;;;26.03;74.50
24440;BME280;12618;54.386;18.394;2022-08-19T23:52:57;99165.34;;;25.99;72.56
24440;BME280;12618;54.386;18.394;2022-08-19T23:55:32;99163.39;;;25.93;72.70
24440;BME280;12618;54.386;18.394;2022-08-19T23:58:08;99169.52;;;25.87;73.63
